Terminal Aerodrome Forecast
Issued by NWS

Home | Current Version | Previous Version | Text Only | Print | Product List | Glossary On
Versions: 1 2 3 4 5 6 7 8 9 10 11 12 13 14 15 16
000
FTUS44 KLIX 172340
TAFHDC
TAF
KHDC 172340Z 1800/1824 VRB03KT 4SM BR BKN005
     FM180300 00000KT 1/4SM FG BKN003
     FM181500 00000KT 3/4SM SHRA BR BKN008 OVC040
     FM181800 VRB03KT 3SM -SHRA BR BKN003 OVC035
     FM182100 16004KT 4SM -SHRA BKN008 OVC040=

USA.gov is the U.S. government's official web portal to all federal, state and local government web resources and services.